Nearby METAR Reports

 

KSJC - San Jose, California, USA
Distance from station: NE 14km
Updated: 2018-08-17 07:53
Haze, Overcast
Haze, Overcast
 Wind from calm
Wind: Calm
Temperature: 16°C
Dew Point: 13°C
Humidity: 83%
Barometer: 1018.6 hPa
Summary: Haze
Clouds: Overcast
Visibility: 10 km
Cloud details: Few Clouds 30 m
Mostly cloudy 274 m
Overcast 366 m
2018/08/17 14:53 KSJC 171453Z 00000KT 6SM HZ FEW001 BKN009 OVC012 16/13 A3008 RMK AO2 SLP185 T01610133 53004 $
KNUQ - Moffett Nas/Mtn, California, USA
Distance from station: N 14km
Updated: 2018-08-17 07:56
Overcast
Overcast
 Wind from NNW
Wind: NNW 7 km/h
Temperature: 16°C
Dew Point: 13°C
Humidity: 83%
Barometer: 1019 hPa
Clouds: Overcast
Visibility: 13 km
Cloud details: Overcast 335 m
2018/08/17 14:56 KNUQ 171456Z 33004KT 8SM OVC011 16/13 A3009 RMK AO2 SLP191 T01610133 53005 $
 
KPAO - Palo Alto, California, USA
Distance from station: NNW 23km
Updated: 2018-08-17 07:47
Overcast
Overcast
 Wind from calm
Wind: Calm
Temperature: 16°C
Dew Point: 13°C
Humidity: 83%
Barometer: 1019 hPa
Clouds: Overcast
Visibility: 13 km
Cloud details: Overcast 244 m
2018/08/17 14:47 KPAO 171447Z 00000KT 8SM OVC008 16/13 A3009
KRHV - San Jose/Reid, California, USA
Distance from station: ENE 19km
Updated: 2018-08-17 08:31
Mist, Mostly cloudy
Mist, Mostly cloudy
 Wind from calm
Wind: Calm
Temperature: 16°C
Dew Point: 14°C
Humidity: 88%
Barometer: 1017.9 hPa
Summary: Mist
Clouds: Mostly cloudy
Visibility: 5 km
Cloud details: Partly cloudy 274 m
Mostly cloudy 366 m
2018/08/17 15:31 KRHV 171531Z 00000KT 3SM BR SCT009 BKN012 16/14 A3006 RMK BIRD ACVISORIES IN EFFECT
 
KOAK - Oakland, California, USA
Distance from station: NNW 50km
Updated: 2018-08-17 07:53
Mist, Overcast
Mist, Overcast
 Wind from calm
Wind: Calm
Temperature: 15°C
Dew Point: 13°C
Humidity: 88%
Barometer: 1018.6 hPa
Summary: Mist
Clouds: Overcast
Visibility: 6 km
Cloud details: Overcast 274 m
2018/08/17 14:53 KOAK 171453Z 00000KT 4SM BR OVC009 15/13 A3008 RMK AO2 SLP184 T01500133 53003
KSQL - San Carlos Airpo, California, USA
Distance from station: NW 34km
Updated: 2018-08-17 07:00
NOT Current
Partly cloudy
Partly cloudy
 Wind from SSW
Wind: SSW 7 km/h
Temperature: 15°C
Dew Point: 13°C
Humidity: 88%
Barometer: 1018.3 hPa
Clouds: Partly cloudy
Visibility: 13 km
Cloud details: Partly cloudy 335 m
2018/08/17 14:00 KSQL 171400Z AUTO 20004KT 8SM SCT011 15/13 A3007 RMK AO2
 
KSFO - San Francisco, California, USA
Distance from station: NW 49km
Updated: 2018-08-17 07:56
Mostly cloudy
Mostly cloudy
 Wind from calm
Wind: Calm
Temperature: 15°C
Dew Point: 12°C
Humidity: 82%
Barometer: 1018.3 hPa
Clouds: Mostly cloudy
Visibility: 14 km
Cloud details: Few Clouds 183 m
Mostly cloudy 305 m
2018/08/17 14:56 KSFO 171456Z 00000KT 9SM FEW006 BKN010 15/12 A3007 RMK AO2 SLP184 T01500122 53004 $
KE16 - San Martin, California, USA
Distance from station: ESE 43km
Updated: 2018-08-17 08:30
Clear
Clear
 Wind from calm
Wind: Calm
Temperature: 17°C
Dew Point: 13°C
Humidity: 77%
Barometer: 1019.3 hPa
Clouds: Clear
Visibility: 13 km
2018/08/17 15:30 KE16 171530Z AUTO 00000KT 8SM CLR 17/13 A3010 RMK AO2
 
KWVI - Watsonville, California, USA
Distance from station: SSE 44km
Updated: 2018-08-17 07:53
Mist, Clear
Mist, Clear
 Wind from calm
Wind: Calm
Temperature: 14°C
Dew Point: 13°C
Humidity: 94%
Barometer: 1018.6 hPa
Summary: Mist
Clouds: Clear
Visibility: 10 km
2018/08/17 14:53 KWVI 171453Z AUTO 00000KT 6SM BR CLR 14/13 A3008 RMK AO2 SLP185 T01440128 53007 $
KHAF - Half Moon Bay, California, USA
Distance from station: WNW 50km
Updated: 2018-08-17 08:40
Mist, Overcast
Mist, Overcast
 Wind from W
Wind: W 7 km/h
Temperature: 14°C
Dew Point: 12°C
Humidity: 88%
Barometer: 1019.3 hPa
Summary: Mist
Clouds: Overcast
Visibility: 8 km
Cloud details: Overcast 244 m
2018/08/17 15:40 KHAF 171540Z AUTO 28004KT 5SM BR OVC008 14/12 A3010 RMK AO2
 
KHWD - Hayward, California, USA
Distance from station: N 44km
Updated: 2018-08-17 07:54
Overcast
Overcast
 Wind from calm
Wind: Calm
Temperature: 16°C
Dew Point: 13°C
Humidity: 83%
Barometer: 1018.6 hPa
Clouds: Overcast
Visibility: 11 km
Cloud details: Overcast 305 m
2018/08/17 14:54 KHWD 171454Z 00000KT 7SM OVC010 16/13 A3008 RMK AO2 SLP194 T01610128 53006
KLVK - Livermore, California, USA
Distance from station: NNE 51km
Updated: 2018-08-17 07:53
Haze, Clear
Haze, Clear
 Wind from varies
Wind: varies 6 km/h
Temperature: 16°C
Dew Point: 13°C
Humidity: 83%
Barometer: 1018.3 hPa
Summary: Haze
Clouds: Clear
Visibility: 6 km
2018/08/17 14:53 KLVK 171453Z VRB03KT 4SM HZ CLR 16/13 A3007 RMK AO2 SLP180 T01560128 53006